createdAt,value
2023-03-14T00:02:16.514Z,7.87
2023-03-14T00:05:19.032Z,7.87
2023-03-14T00:08:22.423Z,8.18
2023-03-14T00:11:24.838Z,7.72
2023-03-14T00:14:26.920Z,7.50
2023-03-14T00:17:29.416Z,8.15
2023-03-14T00:20:31.582Z,7.57
2023-03-14T00:23:35.886Z,8.45
2023-03-14T00:26:38.106Z,8.02
2023-03-14T00:29:43.561Z,8.23
2023-03-14T00:32:45.896Z,7.90
2023-03-14T00:36:00.072Z,8.40
2023-03-14T00:39:04.952Z,8.30
2023-03-14T00:42:07.496Z,7.75
2023-03-14T00:45:11.132Z,7.75
2023-03-14T00:48:14.359Z,8.05
2023-03-14T00:51:16.638Z,8.30
2023-03-14T00:54:20.633Z,8.40
2023-03-14T00:57:22.818Z,8.13
2023-03-14T01:00:25.226Z,8.27
2023-03-14T01:03:27.790Z,8.05
2023-03-14T01:06:31.269Z,7.65
2023-03-14T01:09:33.480Z,8.07
2023-03-14T01:12:35.926Z,8.07
2023-03-14T01:15:38.793Z,8.68
2023-03-14T01:18:44.497Z,8.52
2023-03-14T01:21:46.628Z,9.05
2023-03-14T01:24:49.057Z,8.00
2023-03-14T01:27:51.512Z,8.80
2023-03-14T01:30:54.467Z,8.00
2023-03-14T01:33:57.128Z,8.57
2023-03-14T01:37:00.096Z,8.48
2023-03-14T01:40:02.487Z,9.15
2023-03-14T01:43:18.880Z,9.13
2023-03-14T01:46:26.613Z,8.27
2023-03-14T01:49:34.363Z,9.18
2023-03-14T01:52:46.993Z,8.18
2023-03-14T01:55:51.096Z,9.13
2023-03-14T01:58:53.825Z,9.10
2023-03-14T02:01:56.788Z,8.68
2023-03-14T02:05:00.509Z,9.70
2023-03-14T02:08:06.650Z,9.25
2023-03-14T02:11:09.354Z,9.80
2023-03-14T02:14:23.069Z,9.35
2023-03-14T02:17:27.726Z,9.38
2023-03-14T02:20:52.246Z,8.90
2023-03-14T02:24:09.648Z,10.00
2023-03-14T02:27:17.786Z,9.25
2023-03-14T02:30:26.003Z,9.27
2023-03-14T02:33:28.688Z,10.25
2023-03-14T02:36:31.472Z,9.32
2023-03-14T02:39:40.066Z,9.48
2023-03-14T02:42:42.788Z,9.70
2023-03-14T02:45:47.175Z,9.98
2023-03-14T02:48:58.741Z,9.27
2023-03-14T02:52:01.027Z,8.85
2023-03-14T02:55:04.627Z,9.38
2023-03-14T02:58:08.836Z,9.30
2023-03-14T03:01:11.907Z,9.48
2023-03-14T03:04:14.266Z,8.88
2023-03-14T03:07:16.680Z,9.63
2023-03-14T03:10:19.167Z,10.02
2023-03-14T03:13:22.180Z,9.05
2023-03-14T03:16:25.040Z,9.48
2023-03-14T03:19:27.467Z,9.80
2023-03-14T03:22:29.653Z,9.13
2023-03-14T03:25:32.103Z,9.10
2023-03-14T03:28:37.188Z,10.32
2023-03-14T03:31:40.384Z,9.38
2023-03-14T03:34:42.889Z,9.23
2023-03-14T03:37:46.317Z,8.95
2023-03-14T03:40:48.646Z,9.77
2023-03-14T03:43:51.748Z,9.27
2023-03-14T03:46:54.698Z,9.38
2023-03-14T03:49:57.192Z,9.88
2023-03-14T03:52:59.477Z,9.32
2023-03-14T03:56:02.575Z,10.15
2023-03-14T03:59:05.169Z,10.23
2023-03-14T04:02:08.074Z,10.35
2023-03-14T04:05:11.154Z,9.40
2023-03-14T04:08:14.432Z,9.75
2023-03-14T04:11:18.228Z,8.90
2023-03-14T04:14:20.726Z,9.00
2023-03-14T04:17:23.656Z,8.98
2023-03-14T04:20:26.126Z,8.82
2023-03-14T04:23:28.897Z,8.93
2023-03-14T04:26:31.208Z,9.35
2023-03-14T04:29:33.797Z,8.77
2023-03-14T04:32:36.241Z,8.98
2023-03-14T04:35:38.744Z,8.95
2023-03-14T04:38:41.542Z,8.93
2023-03-14T04:41:45.980Z,9.55
2023-03-14T04:44:50.403Z,9.75
2023-03-14T04:47:53.405Z,8.80
2023-03-14T04:50:56.692Z,9.38
2023-03-14T04:53:59.276Z,8.50
2023-03-14T04:57:02.122Z,9.73
2023-03-14T05:00:08.961Z,8.90
2023-03-14T05:03:13.002Z,9.07
2023-03-14T05:06:17.501Z,8.40
2023-03-14T05:09:20.053Z,9.43
2023-03-14T05:12:23.030Z,8.52
2023-03-14T05:15:25.327Z,8.07
2023-03-14T05:18:27.853Z,8.48
2023-03-14T05:21:30.869Z,9.63
2023-03-14T05:24:35.868Z,8.75
2023-03-14T05:27:38.687Z,9.13
2023-03-14T05:30:42.336Z,9.18
2023-03-14T05:33:45.760Z,8.60
2023-03-14T05:36:48.752Z,7.93
2023-03-14T05:39:51.702Z,8.55
2023-03-14T05:42:54.424Z,8.60
2023-03-14T05:45:56.861Z,8.07
2023-03-14T05:49:00.560Z,8.43
2023-03-14T05:52:03.173Z,9.15
2023-03-14T05:55:07.154Z,9.00
2023-03-14T05:58:09.748Z,7.93
2023-03-14T06:01:12.822Z,8.13
2023-03-14T06:04:15.830Z,8.80
2023-03-14T06:07:18.950Z,7.82
2023-03-14T06:10:21.922Z,8.43
2023-03-14T06:13:24.316Z,7.97
2023-03-14T06:16:26.793Z,7.15
2023-03-14T06:19:29.523Z,8.30
2023-03-14T06:22:32.128Z,8.27
2023-03-14T06:25:35.909Z,7.60
2023-03-14T06:28:39.188Z,7.53
2023-03-14T06:31:41.533Z,8.18
2023-03-14T06:34:44.643Z,7.80
2023-03-14T06:37:47.092Z,7.93
2023-03-14T06:40:49.899Z,8.00
2023-03-14T06:43:54.056Z,8.27
2023-03-14T06:46:57.833Z,8.05
2023-03-14T06:50:00.097Z,8.05
2023-03-14T06:53:02.858Z,7.53
2023-03-14T06:56:06.175Z,8.25
2023-03-14T06:59:09.107Z,8.30
2023-03-14T07:02:13.447Z,7.82
2023-03-14T07:05:16.332Z,7.75
2023-03-14T07:08:19.047Z,8.10
2023-03-14T07:11:22.034Z,8.40
2023-03-14T07:14:26.039Z,8.10
2023-03-14T07:17:29.294Z,8.68
2023-03-14T07:20:33.358Z,8.43
2023-03-14T07:23:36.386Z,8.00
2023-03-14T07:26:38.678Z,7.87
2023-03-14T07:29:41.289Z,8.32
2023-03-14T07:32:44.367Z,8.50
2023-03-14T07:35:49.272Z,7.90
2023-03-14T07:38:52.716Z,8.23
2023-03-14T07:41:56.400Z,8.23
2023-03-14T07:45:01.518Z,8.30
2023-03-14T07:48:07.006Z,7.75
2023-03-14T07:51:09.124Z,7.95
2023-03-14T07:54:11.612Z,7.30
2023-03-14T07:57:14.359Z,7.60
2023-03-14T08:00:17.980Z,8.27
2023-03-14T08:03:21.278Z,7.87
2023-03-14T08:06:23.430Z,7.47
2023-03-14T08:09:26.068Z,8.60
2023-03-14T08:12:28.225Z,8.40
2023-03-14T08:15:31.443Z,7.68
2023-03-14T08:18:33.916Z,7.22
2023-03-14T08:21:36.442Z,7.70
2023-03-14T08:24:38.549Z,7.50
2023-03-14T08:27:42.589Z,7.45
2023-03-14T08:30:48.096Z,7.80
2023-03-14T08:33:53.108Z,7.35
2023-03-14T08:36:57.768Z,7.43
2023-03-14T08:40:00.413Z,7.37
2023-03-14T08:43:02.597Z,6.50
2023-03-14T08:46:05.281Z,6.97
2023-03-14T08:49:07.511Z,7.07
2023-03-14T08:52:10.916Z,7.15
2023-03-14T08:55:13.156Z,6.07
2023-03-14T08:58:15.569Z,6.40
2023-03-14T09:01:19.870Z,6.20
2023-03-14T09:04:22.761Z,6.05
2023-03-14T09:07:25.023Z,6.03
2023-03-14T09:10:27.872Z,5.80
2023-03-14T09:13:30.108Z,5.25
2023-03-14T09:16:34.763Z,5.30
2023-03-14T09:19:37.205Z,5.90
2023-03-14T09:22:39.612Z,5.47
2023-03-14T09:25:41.747Z,5.60
2023-03-14T09:28:44.241Z,5.15
2023-03-14T09:31:46.441Z,5.72
2023-03-14T09:34:48.956Z,5.62
2023-03-14T09:37:51.134Z,6.25
2023-03-14T09:40:54.915Z,5.18
2023-03-14T09:44:14.272Z,5.00
2023-03-14T09:47:20.796Z,5.22
2023-03-14T09:50:24.277Z,4.95
2023-03-14T09:53:43.606Z,5.35
2023-03-14T09:56:45.752Z,4.90
2023-03-14T09:59:50.618Z,4.82
2023-03-14T10:03:00.614Z,4.97
2023-03-14T10:06:11.782Z,4.93
2023-03-14T10:09:26.326Z,2.72
2023-03-14T10:12:34.166Z,1.55
2023-03-14T10:15:38.355Z,1.40
2023-03-14T10:18:46.702Z,1.50
2023-03-14T10:21:54.405Z,1.62
2023-03-14T10:25:23.366Z,1.75
2023-03-14T10:28:39.496Z,1.37
2023-03-14T10:31:54.554Z,1.50
2023-03-14T10:35:15.099Z,1.50
2023-03-14T10:38:20.153Z,1.65
2023-03-14T10:41:28.051Z,1.80
2023-03-14T10:44:32.566Z,1.70
2023-03-14T10:47:34.870Z,1.80
2023-03-14T10:50:37.787Z,1.73
2023-03-14T10:53:43.346Z,1.83
2023-03-14T10:56:45.785Z,1.40
2023-03-14T10:59:48.760Z,2.10
2023-03-14T11:03:23.705Z,1.58
2023-03-14T11:06:51.388Z,1.52
2023-03-14T11:10:21.522Z,1.60
2023-03-14T11:13:23.672Z,1.73
2023-03-14T11:16:52.937Z,1.50
2023-03-14T11:20:13.809Z,1.77
2023-03-14T11:23:23.779Z,1.70
2023-03-14T11:26:54.653Z,1.40
2023-03-14T11:30:16.166Z,1.75
2023-03-14T11:33:26.107Z,1.50
2023-03-14T11:36:34.919Z,1.75
2023-03-14T11:39:42.644Z,1.37
2023-03-14T11:42:51.962Z,1.40
2023-03-14T11:45:57.190Z,1.30
2023-03-14T11:49:39.809Z,1.23
2023-03-14T11:52:49.648Z,1.42
2023-03-14T11:55:54.534Z,1.27
2023-03-14T11:59:02.900Z,1.48
2023-03-14T12:02:18.487Z,1.20
2023-03-14T12:05:26.934Z,0.90
2023-03-14T12:08:29.049Z,1.60
2023-03-14T12:11:58.391Z,1.12
2023-03-14T12:15:03.820Z,1.20
2023-03-14T12:18:22.343Z,1.25
2023-03-14T12:21:43.905Z,1.50
2023-03-14T12:24:52.097Z,1.37
2023-03-14T12:27:57.514Z,1.30
2023-03-14T12:31:32.336Z,1.30
2023-03-14T12:34:42.208Z,1.17
2023-03-14T12:37:53.290Z,1.30
2023-03-14T12:41:00.839Z,1.50
2023-03-14T12:44:31.092Z,1.25
2023-03-14T12:47:49.742Z,1.58
2023-03-14T12:51:03.145Z,1.50
2023-03-14T12:54:40.382Z,1.45
2023-03-14T12:58:13.674Z,1.80
2023-03-14T13:01:20.707Z,1.55
2023-03-14T13:04:51.635Z,1.10
2023-03-14T13:08:00.718Z,1.92
2023-03-14T13:11:11.706Z,1.77
2023-03-14T13:17:42.109Z,1.52
2023-03-14T13:20:53.392Z,1.40
2023-03-14T13:24:19.400Z,1.62
2023-03-14T13:27:22.857Z,1.23
2023-03-14T13:30:25.304Z,1.40
2023-03-14T13:33:27.680Z,2.05
2023-03-14T13:36:30.370Z,1.70
2023-03-14T13:39:33.925Z,1.52
2023-03-14T13:42:37.505Z,1.52
2023-03-14T13:45:47.063Z,1.60
2023-03-14T13:48:51.907Z,1.90
2023-03-14T13:51:54.078Z,1.98
2023-03-14T13:54:58.386Z,2.28
2023-03-14T13:58:00.599Z,1.92
2023-03-14T14:01:14.963Z,2.50
2023-03-14T14:04:20.774Z,2.37
2023-03-14T14:07:23.267Z,2.03
2023-03-14T14:10:29.841Z,2.40
2023-03-14T14:13:35.868Z,2.10
2023-03-14T14:16:38.608Z,2.15
2023-03-14T14:19:42.676Z,2.03
2023-03-14T14:22:47.073Z,1.80
2023-03-14T14:25:50.612Z,2.10
2023-03-14T14:29:06.808Z,1.80
2023-03-14T14:32:11.414Z,1.92
2023-03-14T14:35:25.246Z,2.30
2023-03-14T14:38:27.953Z,3.30
2023-03-14T14:41:32.924Z,2.87
2023-03-14T14:44:36.816Z,2.80
2023-03-14T14:47:53.019Z,2.17
2023-03-14T14:51:03.971Z,3.70
2023-03-14T14:54:16.118Z,3.15
2023-03-14T14:57:24.697Z,3.50
2023-03-14T15:00:28.465Z,3.50
2023-03-14T15:03:33.210Z,3.67
2023-03-14T15:06:35.689Z,3.67
2023-03-14T15:09:37.845Z,3.90
2023-03-14T15:12:41.096Z,3.72
2023-03-14T15:15:44.294Z,3.90
2023-03-14T15:18:52.226Z,3.70
2023-03-14T15:21:55.006Z,4.00
2023-03-14T15:24:57.530Z,3.42
2023-03-14T15:27:59.745Z,3.55
2023-03-14T15:31:02.242Z,3.50
2023-03-14T15:34:04.482Z,3.92
2023-03-14T15:37:11.847Z,3.55
2023-03-14T15:40:15.132Z,3.35
2023-03-14T15:43:18.344Z,3.72
2023-03-14T15:46:21.336Z,3.80
2023-03-14T15:49:23.876Z,3.92
2023-03-14T15:52:26.002Z,2.20
2023-03-14T15:55:28.532Z,2.60
2023-03-14T15:58:34.711Z,2.42
2023-03-14T16:01:37.576Z,2.03
2023-03-14T16:04:40.111Z,2.15
2023-03-14T16:07:42.351Z,2.10
2023-03-14T16:10:46.299Z,1.98
2023-03-14T16:13:48.491Z,2.08
2023-03-14T16:16:53.083Z,1.90
2023-03-14T16:19:55.257Z,1.80
2023-03-14T16:22:57.779Z,2.10
2023-03-14T16:26:00.319Z,2.10
2023-03-14T16:29:03.190Z,2.40
2023-03-14T16:32:06.038Z,2.30
2023-03-14T16:35:08.772Z,1.90
2023-03-14T16:38:10.974Z,1.75
2023-03-14T16:41:17.931Z,2.17
2023-03-14T16:44:20.105Z,2.00
2023-03-14T16:47:22.672Z,2.08
2023-03-14T16:50:24.873Z,1.90
2023-03-14T16:53:29.861Z,2.62
2023-03-14T16:56:32.093Z,1.87
2023-03-14T16:59:35.725Z,1.67
2023-03-14T17:02:38.450Z,2.00
2023-03-14T17:05:48.451Z,2.00
2023-03-14T17:08:51.377Z,1.92
2023-03-14T17:11:55.694Z,1.65
2023-03-14T17:15:00.152Z,1.85
2023-03-14T17:18:03.702Z,2.30
2023-03-14T17:21:06.562Z,1.85
2023-03-14T17:24:09.049Z,2.15
2023-03-14T17:27:11.899Z,2.17
2023-03-14T17:30:14.619Z,2.25
2023-03-14T17:33:17.322Z,2.35
2023-03-14T17:36:19.806Z,2.10
2023-03-14T17:39:21.984Z,2.70
2023-03-14T17:42:24.468Z,1.90
2023-03-14T17:45:26.764Z,1.80
2023-03-14T17:48:29.384Z,2.10
2023-03-14T17:51:31.707Z,2.05
2023-03-14T17:54:34.517Z,1.98
2023-03-14T17:57:40.840Z,2.30
2023-03-14T18:00:43.320Z,2.55
2023-03-14T18:03:46.149Z,2.03
2023-03-14T18:06:48.329Z,2.08
2023-03-14T18:09:51.509Z,1.90
2023-03-14T18:12:54.432Z,1.60
2023-03-14T18:15:57.052Z,2.00
2023-03-14T18:19:00.252Z,2.17
2023-03-14T18:22:02.674Z,1.80
2023-03-14T18:25:05.866Z,1.98
2023-03-14T18:28:08.308Z,1.90
2023-03-14T18:31:12.752Z,2.30
2023-03-14T18:34:15.727Z,1.90
2023-03-14T18:37:17.998Z,1.55
2023-03-14T18:40:20.943Z,1.73
2023-03-14T18:43:23.111Z,1.10
2023-03-14T18:46:26.484Z,1.23
2023-03-14T18:49:28.715Z,1.42
2023-03-14T18:52:31.496Z,1.62
2023-03-14T18:55:34.250Z,1.40
2023-03-14T18:58:36.678Z,1.20
2023-03-14T19:01:39.344Z,1.40
2023-03-14T19:04:41.911Z,1.08
2023-03-14T19:07:44.243Z,1.27
2023-03-14T19:10:46.696Z,1.40
2023-03-14T19:13:49.584Z,1.50
2023-03-14T19:16:52.067Z,1.55
2023-03-14T19:19:54.335Z,1.75
2023-03-14T19:22:58.307Z,1.90
2023-03-14T19:26:02.854Z,2.08
2023-03-14T19:29:06.221Z,1.62
2023-03-14T19:32:10.050Z,1.85
2023-03-14T19:35:12.544Z,1.40
2023-03-14T19:38:15.546Z,1.73
2023-03-14T19:41:18.831Z,1.75
2023-03-14T19:44:21.062Z,1.40
2023-03-14T19:47:23.498Z,1.48
2023-03-14T19:50:26.662Z,1.40
2023-03-14T19:53:29.516Z,1.20
2023-03-14T19:56:32.701Z,1.30
2023-03-14T19:59:35.252Z,2.00
2023-03-14T20:02:38.141Z,2.22
2023-03-14T20:05:41.824Z,2.83
2023-03-14T20:08:45.087Z,2.40
2023-03-14T20:11:48.374Z,2.42
2023-03-14T20:14:50.530Z,2.70
2023-03-14T20:17:53.278Z,2.03
2023-03-14T20:20:56.102Z,1.62
2023-03-14T20:23:59.390Z,1.90
2023-03-14T20:27:01.552Z,3.40
2023-03-14T20:30:12.630Z,4.10
2023-03-14T20:33:18.373Z,3.50
2023-03-14T20:36:21.009Z,3.00
2023-03-14T20:39:24.564Z,3.33
2023-03-14T20:42:27.222Z,2.90
2023-03-14T20:45:29.366Z,3.20
2023-03-14T20:48:32.249Z,2.87
2023-03-14T20:51:34.423Z,3.22
2023-03-14T20:54:37.005Z,2.90
2023-03-14T20:57:39.192Z,2.92
2023-03-14T21:00:47.512Z,2.85
2023-03-14T21:03:49.624Z,2.50
2023-03-14T21:06:55.662Z,2.35
2023-03-14T21:09:57.873Z,2.70
2023-03-14T21:13:00.404Z,2.87
2023-03-14T21:16:03.753Z,2.62
2023-03-14T21:19:06.254Z,2.35
2023-03-14T21:22:08.379Z,2.78
2023-03-14T21:25:10.880Z,2.60
2023-03-14T21:28:13.115Z,2.80
2023-03-14T21:31:15.930Z,2.90
2023-03-14T21:34:20.984Z,2.83
2023-03-14T21:37:27.326Z,3.30
2023-03-14T21:40:29.475Z,3.33
2023-03-14T21:43:31.923Z,3.70
2023-03-14T21:46:37.053Z,4.03
2023-03-14T21:49:39.717Z,3.60
2023-03-14T21:52:46.091Z,3.67
2023-03-14T21:55:48.523Z,4.50
2023-03-14T21:58:50.657Z,4.00
2023-03-14T22:01:53.849Z,4.00
2023-03-14T22:04:56.342Z,3.60
2023-03-14T22:07:58.558Z,3.40
2023-03-14T22:11:00.994Z,3.65
2023-03-14T22:14:03.146Z,3.33
2023-03-14T22:17:05.729Z,3.12
2023-03-14T22:20:11.155Z,3.10
2023-03-14T22:23:13.622Z,2.25
2023-03-14T22:26:17.258Z,2.22
2023-03-14T22:29:19.924Z,2.62
2023-03-14T22:32:22.141Z,2.50
2023-03-14T22:35:24.658Z,2.37
2023-03-14T22:38:26.944Z,3.08
2023-03-14T22:41:29.920Z,4.07
2023-03-14T22:44:32.891Z,4.22
2023-03-14T22:47:35.313Z,4.82
2023-03-14T22:50:39.097Z,4.75
2023-03-14T22:53:41.517Z,4.12
2023-03-14T22:56:43.648Z,3.70
2023-03-14T22:59:46.036Z,3.60
2023-03-14T23:02:48.331Z,2.70
2023-03-14T23:05:50.973Z,2.53
2023-03-14T23:08:53.326Z,2.75
2023-03-14T23:11:55.743Z,2.65
2023-03-14T23:14:57.941Z,2.40
2023-03-14T23:18:01.072Z,2.30
2023-03-14T23:21:10.665Z,2.70
2023-03-14T23:24:13.130Z,2.55
2023-03-14T23:27:17.486Z,2.40
2023-03-14T23:30:21.183Z,2.20
2023-03-14T23:33:26.527Z,1.75
2023-03-14T23:36:29.705Z,2.20
2023-03-14T23:39:31.868Z,2.10
2023-03-14T23:42:35.352Z,1.90
2023-03-14T23:45:37.749Z,1.52
2023-03-14T23:48:40.682Z,1.90
2023-03-14T23:51:42.795Z,1.75
2023-03-14T23:54:45.424Z,1.48
2023-03-14T23:57:47.790Z,1.58
